Time;durP1;ratioP1;P1;durP2;ratioP2;P2;SDS_P1;SDS_P2;PMS_P1;PMS_P2;Temp;Humidity;BMP_temperature;BMP_pressure;BME280_temperature;BME280_humidity;BME280_pressure;Samples;Min_cycle;Max_cycle;Signal;HPM_P1;HPM_P2
2021/08/01 00:01:21;;;;;;;;;;;;;;;20.78;64.56;97574.38;1772149;80;26050;-89
2021/08/01 00:03:47;;;;;;;;;;;;;;;20.75;64.63;97580.60;1764741;80;23900;-88
2021/08/01 00:06:14;;;;;;;;;;;;;;;20.69;64.69;97580.86;1759614;80;20213;-88
2021/08/01 00:08:42;;;;;;;;;;;;;;;20.69;64.76;97574.21;1770232;80;24818;-88
2021/08/01 00:11:08;;;;;;;;;;;;;;;20.71;64.85;97575.36;1775411;79;22056;-88
2021/08/01 00:13:34;;;;;;;;;;;;;;;20.71;64.94;97576.69;1772128;80;26220;-89
2021/08/01 00:16:01;;;;;;;;;;;;;;;20.69;65.03;97578.20;1765238;80;24472;-89
2021/08/01 00:18:27;;;;;;;;;;;;;;;20.67;65.08;97578.09;1763517;80;20205;-88
2021/08/01 00:20:53;;;;;;;;;;;;;;;20.63;65.13;97581.62;1760293;80;24684;-86
2021/08/01 00:23:19;;;;;;;;;;;;;;;20.60;65.22;97579.36;1776965;80;21955;-86
2021/08/01 00:25:45;;;;;;;;;;;;;;;20.59;65.28;97581.69;1770712;80;25923;-85
2021/08/01 00:28:11;;;;;;;;;;;;;;;20.56;65.36;97578.61;1760137;80;20860;-86
2021/08/01 00:30:37;;;;;;;;;;;;;;;20.55;65.43;97587.08;1738404;82;20212;-86
2021/08/01 00:33:05;;;;;;;;;;;;;;;20.55;65.54;97583.60;1721736;82;24814;-86
2021/08/01 00:35:31;;;;;;;;;;;;;;;20.53;65.60;97586.94;1772166;80;21987;-85
2021/08/01 00:37:57;;;;;;;;;;;;;;;20.52;65.69;97593.27;1771356;80;25914;-85
2021/08/01 00:40:23;;;;;;;;;;;;;;;20.54;65.78;97589.92;1762612;80;24455;-85
2021/08/01 00:42:50;;;;;;;;;;;;;;;20.52;65.86;97592.77;1760808;80;20283;-85
2021/08/01 00:45:16;;;;;;;;;;;;;;;20.54;65.92;97590.75;1740994;82;24843;-87
2021/08/01 00:47:43;;;;;;;;;;;;;;;20.57;65.99;97590.86;1740946;81;22732;-87
2021/08/01 00:50:10;;;;;;;;;;;;;;;20.58;66.06;97587.19;1753006;81;26075;-88
2021/08/01 00:52:37;;;;;;;;;;;;;;;20.59;66.12;97586.19;1768799;80;24662;-88
2021/08/01 00:55:04;;;;;;;;;;;;;;;20.60;66.19;97590.50;1764033;80;20302;-88
2021/08/01 00:57:30;;;;;;;;;;;;;;;20.60;66.28;97590.50;1772962;80;24760;-88
2021/08/01 00:59:56;;;;;;;;;;;;;;;20.60;66.36;97575.88;1729254;82;22034;-88
2021/08/01 01:02:29;;;;;;;;;;;;;;;20.61;66.42;97579.67;1742991;82;21131;-89
2021/08/01 01:04:57;;;;;;;;;;;;;;;20.60;66.50;97578.03;1744824;81;24450;-89
2021/08/01 01:07:24;;;;;;;;;;;;;;;20.63;66.57;97575.48;1748835;81;20271;-89
2021/08/01 01:09:59;;;;;;;;;;;;;;;20.65;66.60;97580.11;1749409;81;25453;-89
2021/08/01 01:12:28;;;;;;;;;;;;;;;20.65;66.68;97572.13;1748702;82;22204;-89
2021/08/01 01:14:56;;;;;;;;;;;;;;;20.65;66.73;97572.13;1746238;81;25884;-88
2021/08/01 01:17:23;;;;;;;;;;;;;;;20.63;66.79;97572.31;1746191;81;24535;-89
2021/08/01 01:20:08;;;;;;;;;;;;;;;20.60;66.83;97569.23;1771210;80;20255;-88
2021/08/01 01:22:53;;;;;;;;;;;;;;;20.59;66.89;97568.91;1765393;80;24733;-85
2021/08/01 01:25:36;;;;;;;;;;;;;;;20.54;66.94;97566.83;1743113;82;21986;-86
2021/08/01 01:28:03;;;;;;;;;;;;;;;20.52;67.00;97562.70;1750089;81;26069;-86
2021/08/01 01:30:30;;;;;;;;;;;;;;;20.52;67.04;97559.53;1758317;80;25166;-85
2021/08/01 01:32:58;;;;;;;;;;;;;;;20.53;67.12;97556.38;1764645;80;20364;-85
2021/08/01 01:35:24;;;;;;;;;;;;;;;20.57;67.19;97552.31;1773315;80;24823;-85
2021/08/01 01:37:51;;;;;;;;;;;;;;;20.58;67.22;97549.47;1731858;79;20280;-86
2021/08/01 01:40:19;;;;;;;;;;;;;;;20.60;67.27;97539.48;1769920;80;26674;-85
2021/08/01 01:42:46;;;;;;;;;;;;;;;20.62;67.33;97539.30;1770173;81;24505;-84
2021/08/01 01:45:17;;;;;;;;;;;;;;;20.66;67.36;97532.56;1737535;81;20440;-85
2021/08/01 01:47:43;;;;;;;;;;;;;;;20.70;67.42;97527.17;1735317;80;24741;-85
2021/08/01 01:50:10;;;;;;;;;;;;;;;20.76;67.46;97526.41;1747925;81;21915;-85
2021/08/01 01:52:36;;;;;;;;;;;;;;;20.81;67.50;97524.81;1768290;80;26216;-85
2021/08/01 01:55:02;;;;;;;;;;;;;;;20.83;67.54;97529.44;1726540;82;24474;-85
2021/08/01 01:57:30;;;;;;;;;;;;;;;20.85;67.53;97522.58;1767371;81;20486;-85
2021/08/01 01:59:56;;;;;;;;;;;;;;;20.89;67.56;97525.98;1748783;81;24725;-85
2021/08/01 02:02:22;;;;;;;;;;;;;;;20.91;67.54;97524.46;1768844;81;22762;-88
2021/08/01 02:04:48;;;;;;;;;;;;;;;20.92;67.55;97522.63;1763795;81;25949;-88
2021/08/01 02:07:14;;;;;;;;;;;;;;;20.92;67.53;97520.80;1739476;81;20274;-89
2021/08/01 02:09:54;;;;;;;;;;;;;;;20.95;67.58;97523.05;1743794;81;20466;-89
2021/08/01 02:12:26;;;;;;;;;;;;;;;20.93;67.57;97524.27;1694923;82;24915;-88
2021/08/01 02:15:08;;;;;;;;;;;;;;;20.92;67.59;97517.30;1771199;80;22000;-88
2021/08/01 02:17:36;;;;;;;;;;;;;;;20.94;67.65;97512.62;1750121;81;26114;-88
2021/08/01 02:20:04;;;;;;;;;;;;;;;20.99;67.70;97520.34;1765504;79;25341;-88
2021/08/01 02:22:31;;;;;;;;;;;;;;;20.98;67.74;97514.70;1764859;81;20237;-88
2021/08/01 02:24:58;;;;;;;;;;;;;;;21.03;67.77;97518.09;1763675;80;24763;-88
2021/08/01 02:27:28;;;;;;;;;;;;;;;21.08;67.80;97525.81;1741561;82;22217;-88
2021/08/01 02:29:55;;;;;;;;;;;;;;;21.07;67.81;97522.83;1746237;81;25956;-88
2021/08/01 02:32:21;;;;;;;;;;;;;;;21.07;67.82;97529.98;1747366;81;24728;-85
2021/08/01 02:34:47;;;;;;;;;;;;;;;21.02;67.83;97527.91;1747477;81;20280;-85
2021/08/01 02:37:15;;;;;;;;;;;;;;;20.97;67.85;97526.85;1756217;81;25519;-85
2021/08/01 02:39:41;;;;;;;;;;;;;;;20.93;67.90;97544.23;1764429;80;21958;-85
2021/08/01 02:42:09;;;;;;;;;;;;;;;20.81;67.96;97563.88;1739312;81;26042;-86
2021/08/01 02:44:40;;;;;;;;;;;;;;;20.64;68.03;97565.16;1725412;82;25457;-85
2021/08/01 02:47:08;;;;;;;;;;;;;;;20.52;68.07;97561.37;1752807;80;20970;-86
2021/08/01 02:49:36;;;;;;;;;;;;;;;20.45;68.11;97555.52;1771151;80;24835;-85
2021/08/01 02:52:04;;;;;;;;;;;;;;;20.42;68.11;97549.73;1741443;82;21978;-85
2021/08/01 02:54:31;;;;;;;;;;;;;;;20.42;68.15;97544.42;1734273;80;27136;-85
2021/08/01 02:56:59;;;;;;;;;;;;;;;20.40;68.21;97541.94;1748785;81;24441;-86
2021/08/01 02:59:26;;;;;;;;;;;;;;;20.42;68.26;97535.94;1723015;81;20233;-86
2021/08/01 03:01:54;;;;;;;;;;;;;;;20.44;68.29;97538.42;1752556;80;24802;-86
2021/08/01 03:04:22;;;;;;;;;;;;;;;20.43;68.32;97544.23;1763234;80;22727;-86
2021/08/01 03:06:49;;;;;;;;;;;;;;;20.38;68.34;97536.02;1742620;81;27588;-86
2021/08/01 03:09:15;;;;;;;;;;;;;;;20.40;68.41;97537.95;1763133;80;24427;-86
2021/08/01 03:11:41;;;;;;;;;;;;;;;20.41;68.46;97542.27;1744101;81;20294;-86
2021/08/01 03:14:12;;;;;;;;;;;;;;;20.48;68.50;97541.00;1738549;81;24906;-86
2021/08/01 03:16:42;;;;;;;;;;;;;;;20.54;68.54;97536.25;1738745;80;21977;-86
2021/08/01 03:19:07;;;;;;;;;;;;;;;20.56;68.55;97544.05;1729366;81;27559;-85
2021/08/01 03:21:33;;;;;;;;;;;;;;;20.55;68.55;97542.39;1743844;81;24522;-85
2021/08/01 03:23:59;;;;;;;;;;;;;;;20.56;68.58;97545.38;1767744;80;20303;-86
2021/08/01 03:26:25;;;;;;;;;;;;;;;20.56;68.56;97534.74;1767698;80;24818;-85
2021/08/01 03:28:51;;;;;;;;;;;;;;;20.57;68.55;97523.06;1767850;80;20818;-86
2021/08/01 03:31:17;;;;;;;;;;;;;;;20.55;68.61;97514.48;1771608;80;25976;-86
2021/08/01 03:33:44;;;;;;;;;;;;;;;20.54;68.59;97500.87;1757867;80;24503;-86
2021/08/01 03:36:10;;;;;;;;;;;;;;;20.49;68.62;97486.01;1755761;81;20901;-86
2021/08/01 03:38:36;;;;;;;;;;;;;;;20.41;68.63;97475.82;1764520;81;24778;-86
2021/08/01 03:41:02;;;;;;;;;;;;;;;20.42;68.66;97500.06;1732816;81;21949;-85
2021/08/01 03:43:28;;;;;;;;;;;;;;;20.51;68.70;97515.89;1725784;82;25975;-85
2021/08/01 03:45:54;;;;;;;;;;;;;;;20.51;68.71;97515.89;1758519;79;20909;-85
2021/08/01 03:48:22;;;;;;;;;;;;;;;20.44;68.77;97503.86;1746654;81;20291;-85
2021/08/01 03:50:49;;;;;;;;;;;;;;;20.37;68.80;97484.38;1746341;81;24375;-85
2021/08/01 03:53:19;;;;;;;;;;;;;;;20.27;68.86;97489.16;1739282;82;22081;-86
2021/08/01 03:55:43;;;;;;;;;;;;;;;20.31;68.92;97500.58;1743937;82;26045;-86
2021/08/01 03:58:12;;;;;;;;;;;;;;;20.40;69.00;97495.97;1743232;82;24509;-86
2021/08/01 04:00:43;;;;;;;;;;;;;;;20.44;69.04;97501.20;1744572;81;20603;-85
2021/08/01 04:03:12;;;;;;;;;;;;;;;20.55;69.13;97512.65;1741076;82;24736;-85
2021/08/01 04:05:38;;;;;;;;;;;;;;;20.62;69.12;97510.05;1745153;82;21965;-85
2021/08/01 04:08:04;;;;;;;;;;;;;;;20.56;69.15;97506.83;1743280;82;26181;-85
2021/08/01 04:10:37;;;;;;;;;;;;;;;20.45;69.20;97501.53;1698394;82;38941;-85
2021/08/01 04:13:04;;;;;;;;;;;;;;;20.35;69.27;97495.69;1739519;80;20272;-85
2021/08/01 04:15:30;;;;;;;;;;;;;;;20.26;69.36;97485.69;1738995;82;25454;-85
2021/08/01 04:17:56;;;;;;;;;;;;;;;20.21;69.44;97479.30;1731250;81;21982;-85
2021/08/01 04:20:22;;;;;;;;;;;;;;;20.19;69.55;97490.11;1732952;82;21025;-85
2021/08/01 04:22:49;;;;;;;;;;;;;;;20.20;69.63;97493.59;1730449;81;20825;-85
2021/08/01 04:25:15;;;;;;;;;;;;;;;20.21;69.72;97499.22;1758684;81;20336;-85
2021/08/01 04:27:43;;;;;;;;;;;;;;;20.35;69.81;97499.17;1768118;81;24911;-86
2021/08/01 04:30:09;;;;;;;;;;;;;;;20.48;69.86;97493.66;1723944;82;22078;-85
2021/08/01 04:32:35;;;;;;;;;;;;;;;20.61;69.86;97489.28;1726658;81;25929;-85
2021/08/01 04:35:01;;;;;;;;;;;;;;;20.74;69.86;97495.19;1755562;81;20308;-85
2021/08/01 04:37:27;;;;;;;;;;;;;;;20.76;69.84;97496.64;1734047;82;20166;-87
2021/08/01 04:39:53;;;;;;;;;;;;;;;20.68;69.84;97500.77;1733452;82;24727;-87
2021/08/01 04:42:19;;;;;;;;;;;;;;;20.66;69.83;97498.00;1734675;82;22038;-87
2021/08/01 04:44:45;;;;;;;;;;;;;;;20.73;69.86;97492.23;1732592;82;21045;-87
2021/08/01 04:47:13;;;;;;;;;;;;;;;20.88;69.85;97490.28;1734447;82;24376;-87
2021/08/01 04:49:39;;;;;;;;;;;;;;;21.05;69.86;97494.28;1734533;82;20189;-87
2021/08/01 04:52:05;;;;;;;;;;;;;;;21.16;69.83;97506.25;1733403;82;24799;-88
2021/08/01 04:54:31;;;;;;;;;;;;;;;21.27;69.81;97513.14;1732553;82;21946;-88
2021/08/01 04:56:57;;;;;;;;;;;;;;;21.33;69.75;97523.51;1734946;82;26839;-88
2021/08/01 04:59:25;;;;;;;;;;;;;;;21.33;69.66;97526.70;1737171;82;20452;-88
2021/08/01 05:01:51;;;;;;;;;;;;;;;21.31;69.56;97524.23;1732887;82;20838;-88
2021/08/01 05:04:17;;;;;;;;;;;;;;;21.24;69.44;97522.86;1734309;82;20435;-88
2021/08/01 05:06:44;;;;;;;;;;;;;;;21.14;69.38;97514.42;1731876;82;22278;-88
2021/08/01 05:09:10;;;;;;;;;;;;;;;21.10;69.33;97513.14;1734433;82;26026;-88
2021/08/01 05:11:36;;;;;;;;;;;;;;;21.10;69.28;97515.80;1734794;82;20902;-88
2021/08/01 05:14:02;;;;;;;;;;;;;;;21.08;69.27;97520.98;1732356;82;20475;-88
2021/08/01 05:16:30;;;;;;;;;;;;;;;21.09;69.30;97514.16;1733515;82;24785;-88
2021/08/01 05:18:56;;;;;;;;;;;;;;;21.11;69.29;97513.97;1733564;82;22768;-88
2021/08/01 05:21:25;;;;;;;;;;;;;;;21.13;69.31;97516.73;1740049;82;26112;-88
2021/08/01 05:23:51;;;;;;;;;;;;;;;21.02;69.31;97514.61;1732292;82;23993;-87
2021/08/01 05:26:20;;;;;;;;;;;;;;;20.94;69.32;97516.61;1734908;82;20487;-88
2021/08/01 05:28:47;;;;;;;;;;;;;;;20.89;69.37;97510.55;1734481;82;24867;-87
2021/08/01 05:31:17;;;;;;;;;;;;;;;20.80;69.37;97505.05;1734473;82;22086;-88
2021/08/01 05:33:43;;;;;;;;;;;;;;;20.77;69.39;97502.79;1736736;82;26046;-88
2021/08/01 05:36:11;;;;;;;;;;;;;;;20.78;69.46;97495.92;1712749;82;24520;-88
2021/08/01 05:38:37;;;;;;;;;;;;;;;20.94;69.58;97503.31;1737358;82;20323;-89
2021/08/01 05:41:03;;;;;;;;;;;;;;;21.04;69.67;97500.62;1736069;82;24825;-89
2021/08/01 05:43:29;;;;;;;;;;;;;;;21.13;69.72;97494.11;1739287;82;20417;-87
2021/08/01 05:45:55;;;;;;;;;;;;;;;21.11;69.76;97492.14;1739789;82;21117;-88
2021/08/01 05:48:21;;;;;;;;;;;;;;;21.05;69.77;97478.83;1738643;82;24567;-88
2021/08/01 05:50:47;;;;;;;;;;;;;;;20.99;69.85;97475.11;1738616;82;20320;-88
2021/08/01 05:53:16;;;;;;;;;;;;;;;20.91;69.87;97482.41;1738551;82;24240;-90
2021/08/01 05:55:42;;;;;;;;;;;;;;;20.84;69.85;97485.02;1737538;82;22266;-89
2021/08/01 05:58:08;;;;;;;;;;;;;;;20.84;69.85;97489.83;1739457;82;26017;-88
2021/08/01 06:00:34;;;;;;;;;;;;;;;20.87;69.86;97481.48;1736939;82;25123;-88
2021/08/01 06:03:00;;;;;;;;;;;;;;;20.84;69.82;97475.20;1714275;82;20236;-89
2021/08/01 06:05:31;;;;;;;;;;;;;;;20.86;69.80;97475.84;1738306;81;24787;-88
2021/08/01 06:07:54;;;;;;;;;;;;;;;20.97;69.86;97478.97;1737353;82;22210;-88
2021/08/01 06:10:23;;;;;;;;;;;;;;;21.15;69.92;97474.82;1737444;82;26174;-88
2021/08/01 06:12:49;;;;;;;;;;;;;;;21.33;69.95;97480.13;1736280;82;24446;-88
2021/08/01 06:15:15;;;;;;;;;;;;;;;21.34;69.90;97481.23;1713180;82;20264;-88
2021/08/01 06:17:43;;;;;;;;;;;;;;;21.36;69.90;97485.05;1737357;82;20841;-85
2021/08/01 06:20:12;;;;;;;;;;;;;;;21.43;69.98;97486.72;1738741;82;22835;-85
2021/08/01 06:22:38;;;;;;;;;;;;;;;21.49;70.01;97481.12;1713291;82;26167;-84
2021/08/01 06:25:04;;;;;;;;;;;;;;;21.59;69.98;97476.23;1739646;81;20295;-85
2021/08/01 06:27:31;;;;;;;;;;;;;;;21.61;69.91;97457.69;1739257;82;20230;-85
2021/08/01 06:29:57;;;;;;;;;;;;;;;21.76;69.86;97456.21;1713523;82;20217;-85
2021/08/01 06:32:23;;;;;;;;;;;;;;;21.82;69.72;97451.92;1739160;81;22000;-86
2021/08/01 06:34:50;;;;;;;;;;;;;;;21.90;69.49;97458.38;1739104;82;26010;-85
2021/08/01 06:37:16;;;;;;;;;;;;;;;22.00;69.26;97458.32;1739774;82;24493;-86
2021/08/01 06:39:43;;;;;;;;;;;;;;;22.10;68.99;97453.41;1738221;81;20560;-86
2021/08/01 06:42:09;;;;;;;;;;;;;;;22.17;68.77;97450.76;1738393;82;24674;-86
2021/08/01 06:44:35;;;;;;;;;;;;;;;22.12;68.50;97438.56;1738274;82;21984;-86
2021/08/01 06:47:01;;;;;;;;;;;;;;;22.00;68.14;97433.52;1737207;82;25935;-86
2021/08/01 06:49:27;;;;;;;;;;;;;;;21.92;67.93;97421.20;1739121;82;24023;-86
2021/08/01 06:51:53;;;;;;;;;;;;;;;21.85;67.84;97412.38;1738369;82;20234;-86
2021/08/01 06:54:22;;;;;;;;;;;;;;;21.71;67.62;97399.53;1739935;82;20244;-86
2021/08/01 06:56:48;;;;;;;;;;;;;;;21.60;67.33;97397.46;1737518;82;21985;-86
2021/08/01 06:59:14;;;;;;;;;;;;;;;21.55;67.12;97390.59;1737225;82;26054;-86
2021/08/01 07:01:40;;;;;;;;;;;;;;;21.50;66.94;97394.87;1739836;82;24553;-87
2021/08/01 07:04:06;;;;;;;;;;;;;;;21.50;66.84;97394.87;1739725;81;20893;-87
2021/08/01 07:06:33;;;;;;;;;;;;;;;21.55;66.80;97397.25;1739360;82;24619;-87
2021/08/01 07:08:59;;;;;;;;;;;;;;;21.60;66.75;97392.67;1739421;82;22780;-87
2021/08/01 07:11:25;;;;;;;;;;;;;;;21.65;66.69;97400.37;1739903;82;26202;-87
2021/08/01 07:13:51;;;;;;;;;;;;;;;21.70;66.69;97406.41;1737213;82;20870;-86
2021/08/01 07:16:17;;;;;;;;;;;;;;;21.74;66.63;97413.48;1713208;82;20308;-87
2021/08/01 07:18:42;;;;;;;;;;;;;;;21.85;66.67;97415.03;1739287;81;20232;-87
2021/08/01 07:21:09;;;;;;;;;;;;;;;21.99;66.77;97415.88;1739856;82;21950;-87
2021/08/01 07:23:38;;;;;;;;;;;;;;;22.00;66.79;97417.02;1740348;82;26697;-87
2021/08/01 07:26:04;;;;;;;;;;;;;;;21.94;66.74;97415.64;1740038;82;24415;-86
2021/08/01 07:28:33;;;;;;;;;;;;;;;21.92;66.73;97413.72;1739750;82;20577;-86
2021/08/01 07:30:59;;;;;;;;;;;;;;;21.86;66.80;97406.53;1738149;82;24767;-86
2021/08/01 07:33:25;;;;;;;;;;;;;;;21.79;66.83;97383.05;1741131;80;22042;-85
2021/08/01 07:35:51;;;;;;;;;;;;;;;21.68;66.89;97360.00;1776706;80;20964;-86
2021/08/01 07:38:18;;;;;;;;;;;;;;;21.57;66.99;97371.25;1753576;80;24446;-86
2021/08/01 07:40:44;;;;;;;;;;;;;;;21.57;67.07;97378.41;1744262;81;20221;-89
2021/08/01 07:43:10;;;;;;;;;;;;;;;21.56;67.20;97353.63;1758622;81;24819;-87
2021/08/01 07:45:36;;;;;;;;;;;;;;;21.66;67.35;97375.86;1761942;79;20315;-86
2021/08/01 07:48:03;;;;;;;;;;;;;;;21.69;67.47;97370.14;1777758;80;25947;-87
2021/08/01 07:50:29;;;;;;;;;;;;;;;21.69;67.55;97377.63;1754666;80;24415;-86
2021/08/01 07:52:55;;;;;;;;;;;;;;;21.68;67.59;97384.48;1758725;81;20225;-87
2021/08/01 07:55:22;;;;;;;;;;;;;;;21.69;67.64;97402.10;1765466;81;20273;-87
2021/08/01 07:57:50;;;;;;;;;;;;;;;21.84;67.79;97410.72;1747131;80;22146;-87
2021/08/01 08:00:16;;;;;;;;;;;;;;;21.96;67.96;97413.13;1741821;81;26795;-87
2021/08/01 08:02:42;;;;;;;;;;;;;;;22.07;68.08;97414.37;1733798;82;24389;-86
2021/08/01 08:05:14;;;;;;;;;;;;;;;22.15;68.20;97422.69;1754011;80;20252;-86
2021/08/01 08:07:41;;;;;;;;;;;;;;;22.30;68.31;97429.95;1743646;82;24839;-88
2021/08/01 08:10:08;;;;;;;;;;;;;;;22.39;68.35;97431.38;1746293;80;21905;-88
2021/08/01 08:12:35;;;;;;;;;;;;;;;22.41;68.41;97444.83;1747392;81;26986;-88
2021/08/01 08:15:06;;;;;;;;;;;;;;;22.39;68.43;97456.70;1730877;82;24498;-89
2021/08/01 08:17:33;;;;;;;;;;;;;;;22.35;68.43;97466.97;1760321;80;20324;-89
2021/08/01 08:20:00;;;;;;;;;;;;;;;22.32;68.41;97470.55;1759651;81;24941;-86
2021/08/01 08:22:26;;;;;;;;;;;;;;;22.27;68.43;97483.16;1765716;81;21987;-85
2021/08/01 08:24:52;;;;;;;;;;;;;;;22.22;68.45;97498.12;1770930;79;20786;-86
2021/08/01 08:27:18;;;;;;;;;;;;;;;22.13;68.48;97512.16;1769185;80;24364;-87
2021/08/01 08:29:44;;;;;;;;;;;;;;;22.00;68.53;97515.61;1777722;80;20275;-87
2021/08/01 08:32:10;;;;;;;;;;;;;;;21.90;68.61;97519.14;1753722;80;20222;-87
2021/08/01 08:34:36;;;;;;;;;;;;;;;21.79;68.72;97523.72;1732148;82;22060;-86
2021/08/01 08:37:02;;;;;;;;;;;;;;;21.69;68.82;97529.94;1742270;82;21266;-87
2021/08/01 08:39:29;;;;;;;;;;;;;;;21.56;68.92;97508.06;1764211;80;24447;-87
2021/08/01 08:42:02;;;;;;;;;;;;;;;21.36;69.05;97469.89;1748802;81;20614;-87
2021/08/01 08:44:28;;;;;;;;;;;;;;;21.16;69.22;97445.05;1751371;81;24810;-87
2021/08/01 08:46:55;;;;;;;;;;;;;;;20.96;69.40;97443.56;1745525;82;22009;-87
2021/08/01 08:49:22;;;;;;;;;;;;;;;20.79;69.60;97422.28;1772895;80;26146;-87
2021/08/01 08:51:49;;;;;;;;;;;;;;;20.67;69.85;97429.19;1737815;80;25183;-87
2021/08/01 08:54:34;;;;;;;;;;;;;;;20.61;70.08;97429.97;1733440;82;20560;-89
2021/08/01 08:57:02;;;;;;;;;;;;;;;20.56;70.35;97429.73;1776824;80;25061;-89
2021/08/01 08:59:32;;;;;;;;;;;;;;;20.52;70.63;97424.47;1769629;80;22033;-87
2021/08/01 09:01:58;;;;;;;;;;;;;;;20.43;70.88;97391.41;1752179;80;25984;-90
2021/08/01 09:04:24;;;;;;;;;;;;;;;20.37;71.12;97378.89;1746345;82;20959;-90
2021/08/01 09:06:50;;;;;;;;;;;;;;;20.41;71.37;97360.20;1766381;80;20885;-89
2021/08/01 09:09:19;;;;;;;;;;;;;;;20.42;71.61;97339.77;1774253;80;24716;-89
2021/08/01 09:11:45;;;;;;;;;;;;;;;20.36;71.91;97296.19;1764819;80;20904;-89
2021/08/01 09:14:12;;;;;;;;;;;;;;;20.29;72.20;97242.16;1762101;80;21017;-90
2021/08/01 09:16:42;;;;;;;;;;;;;;;20.22;72.50;97197.48;1760992;80;24444;-89
2021/08/01 09:19:14;;;;;;;;;;;;;;;20.16;72.79;97196.94;1768849;80;20169;-89
2021/08/01 09:21:41;;;;;;;;;;;;;;;20.24;73.09;97194.10;1757917;80;24721;-88
2021/08/01 09:24:07;;;;;;;;;;;;;;;20.36;73.37;97189.89;1776934;78;22121;-88
2021/08/01 09:26:43;;;;;;;;;;;;;;;20.39;73.62;97168.25;1736493;81;25997;-88
2021/08/01 09:29:09;;;;;;;;;;;;;;;20.42;73.86;97184.30;1767705;79;25559;-88
2021/08/01 09:31:35;;;;;;;;;;;;;;;20.54;74.09;97177.39;1753246;81;20864;-88
2021/08/01 09:34:02;;;;;;;;;;;;;;;20.63;74.29;97167.38;1743637;80;20291;-88
2021/08/01 09:36:32;;;;;;;;;;;;;;;20.71;74.45;97181.32;1738871;82;22690;-88
2021/08/01 09:39:00;;;;;;;;;;;;;;;20.82;74.59;97174.59;1741349;82;26210;-88
2021/08/01 09:41:38;;;;;;;;;;;;;;;20.88;74.73;97171.95;1739056;81;24651;-88
2021/08/01 09:44:05;;;;;;;;;;;;;;;20.96;74.85;97176.23;1742098;82;20320;-88
2021/08/01 09:46:47;;;;;;;;;;;;;;;21.09;74.91;97198.05;1769394;81;24822;-88
2021/08/01 09:49:25;;;;;;;;;;;;;;;21.12;75.00;97206.44;1743813;80;22059;-88
2021/08/01 09:51:49;;;;;;;;;;;;;;;21.16;75.05;97221.53;1761139;80;26109;-88
2021/08/01 09:54:16;;;;;;;;;;;;;;;21.15;75.02;97231.86;1753256;79;24496;-88
2021/08/01 09:56:55;;;;;;;;;;;;;;;21.10;74.99;97248.91;1765422;80;20491;-88
2021/08/01 09:59:29;;;;;;;;;;;;;;;20.99;74.93;97235.70;1756795;81;24815;-89
2021/08/01 10:01:59;;;;;;;;;;;;;;;20.85;74.82;97244.14;1754934;81;22058;-88
2021/08/01 10:04:28;;;;;;;;;;;;;;;20.75;74.78;97252.19;1736389;82;26025;-88
2021/08/01 10:07:02;;;;;;;;;;;;;;;20.63;74.70;97245.30;1763467;79;24481;-89
2021/08/01 10:09:29;;;;;;;;;;;;;;;20.49;74.65;97255.58;1762622;81;20518;-88
2021/08/01 10:11:55;;;;;;;;;;;;;;;20.33;74.62;97271.86;1769001;80;24884;-88
2021/08/01 10:14:22;;;;;;;;;;;;;;;20.25;74.63;97264.83;1752738;80;21821;-88
2021/08/01 10:16:48;;;;;;;;;;;;;;;20.19;74.66;97276.73;1754037;81;25975;-88
2021/08/01 10:19:14;;;;;;;;;;;;;;;20.13;74.66;97273.03;1742396;82;20448;-87
2021/08/01 10:21:42;;;;;;;;;;;;;;;20.07;74.70;97216.73;1761779;81;20604;-88
2021/08/01 10:24:10;;;;;;;;;;;;;;;20.01;74.74;97255.52;1762039;81;24899;-89
2021/08/01 10:26:37;;;;;;;;;;;;;;;19.98;74.79;97283.77;1738209;81;22097;-89
2021/08/01 10:29:05;;;;;;;;;;;;;;;19.93;74.82;97272.91;1765671;81;26032;-89
2021/08/01 10:31:33;;;;;;;;;;;;;;;19.93;74.93;97276.08;1760181;79;24430;-89
2021/08/01 10:34:03;;;;;;;;;;;;;;;19.92;74.99;97291.19;1756241;81;20226;-88
2021/08/01 10:36:30;;;;;;;;;;;;;;;19.92;75.08;97285.05;1740292;81;24817;-88
2021/08/01 10:39:01;;;;;;;;;;;;;;;19.93;75.17;97280.87;1739757;81;22041;-87
2021/08/01 10:41:29;;;;;;;;;;;;;;;19.97;75.22;97316.65;1739620;81;26650;-87
2021/08/01 10:43:57;;;;;;;;;;;;;;;20.03;75.32;97341.62;1736027;82;24501;-87
2021/08/01 10:46:24;;;;;;;;;;;;;;;20.08;75.38;97358.30;1736333;82;20354;-87
2021/08/01 10:48:50;;;;;;;;;;;;;;;20.08;75.47;97352.48;1725660;81;24797;-87
2021/08/01 10:51:16;;;;;;;;;;;;;;;19.99;75.58;97312.48;1732030;81;21926;-87
2021/08/01 10:53:42;;;;;;;;;;;;;;;20.05;75.68;97284.64;1728491;81;26099;-87
2021/08/01 10:56:10;;;;;;;;;;;;;;;20.08;75.80;97271.47;1721704;81;24428;-88
2021/08/01 10:58:37;;;;;;;;;;;;;;;20.14;75.90;97255.25;1732604;81;20246;-88
2021/08/01 11:01:04;;;;;;;;;;;;;;;20.22;76.07;97244.48;1729840;81;24988;-88
2021/08/01 11:03:31;;;;;;;;;;;;;;;20.34;76.25;97238.96;1739342;82;22076;-88
2021/08/01 11:05:58;;;;;;;;;;;;;;;20.40;76.42;97225.67;1703421;82;26099;-88
2021/08/01 11:08:26;;;;;;;;;;;;;;;20.51;76.56;97228.81;1749740;82;24493;-88
2021/08/01 11:11:11;;;;;;;;;;;;;;;20.58;76.63;97226.97;1750229;82;20542;-88
2021/08/01 11:13:38;;;;;;;;;;;;;;;20.69;76.69;97227.22;1749970;80;24741;-88
2021/08/01 11:16:06;;;;;;;;;;;;;;;20.77;76.72;97235.03;1746523;81;22046;-88
2021/08/01 11:18:34;;;;;;;;;;;;;;;20.80;76.78;97227.97;1748372;82;26056;-88
2021/08/01 11:21:03;;;;;;;;;;;;;;;20.84;76.73;97216.41;1749048;80;24391;-88
2021/08/01 11:23:49;;;;;;;;;;;;;;;20.92;76.70;97226.05;1749438;82;20197;-88
2021/08/01 11:26:16;;;;;;;;;;;;;;;20.96;76.69;97220.63;1748081;82;24838;-88
2021/08/01 11:28:43;;;;;;;;;;;;;;;20.94;76.69;97220.03;1746932;81;22070;-88
2021/08/01 11:31:13;;;;;;;;;;;;;;;20.94;76.69;97228.83;1749967;82;25668;-88
2021/08/01 11:33:46;;;;;;;;;;;;;;;21.05;76.70;97244.72;1750140;82;24452;-88
2021/08/01 11:36:17;;;;;;;;;;;;;;;21.14;76.70;97249.66;1750807;81;20218;-89
2021/08/01 11:38:55;;;;;;;;;;;;;;;21.14;76.70;97231.52;1764527;80;24981;-89
2021/08/01 11:41:35;;;;;;;;;;;;;;;21.02;76.72;97228.63;1773809;79;22792;-89
2021/08/01 11:44:14;;;;;;;;;;;;;;;21.00;76.76;97213.91;1770156;80;26027;-89
2021/08/01 11:46:53;;;;;;;;;;;;;;;20.93;76.79;97212.56;1732686;82;24470;-91
2021/08/01 11:49:20;;;;;;;;;;;;;;;21.00;76.83;97200.06;1726657;80;20552;-91
2021/08/01 11:51:54;;;;;;;;;;;;;;;21.01;76.87;97195.06;1737126;80;25521;-90
2021/08/01 11:54:21;;;;;;;;;;;;;;;20.94;76.89;97187.61;1759920;80;22074;-89
2021/08/01 11:56:48;;;;;;;;;;;;;;;20.84;76.95;97182.66;1769821;80;26063;-89
2021/08/01 11:59:15;;;;;;;;;;;;;;;20.83;77.05;97177.56;1726381;80;24387;-89
2021/08/01 12:01:41;;;;;;;;;;;;;;;20.78;77.14;97167.51;1754458;81;20391;-89
2021/08/01 12:04:08;;;;;;;;;;;;;;;20.76;77.23;97154.95;1749108;81;24747;-89
2021/08/01 12:06:34;;;;;;;;;;;;;;;20.77;77.30;97163.23;1727482;82;21985;-89
2021/08/01 12:09:19;;;;;;;;;;;;;;;20.80;77.45;97156.67;1733563;80;25973;-89
2021/08/01 12:11:49;;;;;;;;;;;;;;;20.85;77.57;97155.56;1732956;80;24664;-89
2021/08/01 12:14:15;;;;;;;;;;;;;;;20.96;77.72;97153.62;1737249;80;20301;-89
2021/08/01 12:17:02;;;;;;;;;;;;;;;21.06;77.86;97150.05;1743357;81;24811;-89
2021/08/01 12:19:35;;;;;;;;;;;;;;;21.24;77.98;97148.14;1766836;80;21249;-90
2021/08/01 12:22:03;;;;;;;;;;;;;;;21.47;78.18;97154.37;1754290;80;27273;-89
2021/08/01 12:24:43;;;;;;;;;;;;;;;21.66;78.30;97154.84;1758542;80;24635;-89
2021/08/01 12:27:11;;;;;;;;;;;;;;;21.71;78.30;97159.84;1758669;80;20208;-89
2021/08/01 12:29:38;;;;;;;;;;;;;;;21.71;78.26;97163.05;1763601;80;24797;-90
2021/08/01 12:32:23;;;;;;;;;;;;;;;21.70;78.15;97166.22;1752327;80;21921;-88
2021/08/01 12:34:51;;;;;;;;;;;;;;;21.73;78.08;97164.15;1759905;80;26029;-88
2021/08/01 12:37:17;;;;;;;;;;;;;;;21.74;78.01;97165.79;1766415;80;25172;-88
2021/08/01 12:39:45;;;;;;;;;;;;;;;21.77;77.94;97160.86;1759239;80;20277;-87
2021/08/01 12:42:11;;;;;;;;;;;;;;;21.89;77.95;97161.86;1761919;80;24768;-87
2021/08/01 12:44:39;;;;;;;;;;;;;;;21.97;77.93;97157.68;1770534;80;21979;-88
2021/08/01 12:47:06;;;;;;;;;;;;;;;22.00;77.94;97147.09;1729733;81;25994;-87
2021/08/01 12:49:34;;;;;;;;;;;;;;;22.05;77.86;97154.77;1749442;80;24257;-88
2021/08/01 12:52:00;;;;;;;;;;;;;;;22.14;77.78;97161.20;1740185;82;20251;-88